createdAt,value
2022-12-28T00:02:40.022Z,62.32684
2022-12-28T00:17:42.299Z,9.58875
2022-12-28T00:32:44.519Z,1.19859
2022-12-28T00:47:46.863Z,0
2022-12-28T01:02:49.174Z,0
2022-12-28T01:17:51.496Z,0
2022-12-28T01:32:53.834Z,0
2022-12-28T01:47:56.140Z,0
2022-12-28T02:02:58.461Z,0
2022-12-28T02:18:00.844Z,0
2022-12-28T02:33:03.118Z,0
2022-12-28T02:48:05.378Z,0
2022-12-28T03:03:07.680Z,0
2022-12-28T03:18:09.932Z,0
2022-12-28T03:33:12.198Z,0
2022-12-28T03:48:14.444Z,0
2022-12-28T04:03:16.747Z,0
2022-12-28T04:18:19.200Z,0
2022-12-28T04:33:21.451Z,0
2022-12-28T04:48:23.707Z,0
2022-12-28T05:03:25.950Z,0
2022-12-28T05:18:28.198Z,0
2022-12-28T05:33:30.416Z,0
2022-12-28T05:48:32.666Z,0
2022-12-28T06:03:35.009Z,0
2022-12-28T06:18:37.297Z,0
2022-12-28T06:33:39.531Z,0
2022-12-28T06:48:41.735Z,0
2022-12-28T07:03:43.965Z,0
2022-12-28T07:18:46.276Z,0
2022-12-28T07:33:48.515Z,0
2022-12-28T07:48:50.882Z,0
2022-12-28T08:03:53.258Z,0
2022-12-28T08:18:55.545Z,0
2022-12-28T08:33:57.988Z,0
2022-12-28T08:49:00.282Z,0
2022-12-28T09:04:02.510Z,0
2022-12-28T09:19:04.869Z,0
2022-12-28T09:34:36.671Z,0
2022-12-28T09:49:39.475Z,0
2022-12-28T10:04:47.298Z,0
2022-12-28T10:19:51.553Z,0
2022-12-28T10:34:53.930Z,0
2022-12-28T10:50:35.197Z,0
2022-12-28T11:05:38.288Z,0
2022-12-28T11:20:40.558Z,0
2022-12-28T11:35:42.841Z,0
2022-12-28T11:50:45.155Z,0
2022-12-28T12:05:47.440Z,0
2022-12-28T12:20:49.962Z,0
2022-12-28T12:35:52.186Z,0
2022-12-28T12:50:54.569Z,0
2022-12-28T13:05:56.818Z,0
2022-12-28T13:20:59.043Z,0
2022-12-28T13:36:01.311Z,0
2022-12-28T13:51:03.611Z,0
2022-12-28T14:06:05.833Z,0
2022-12-28T14:21:08.130Z,0
2022-12-28T14:36:10.372Z,0
2022-12-28T14:51:13.217Z,0
2022-12-28T15:06:15.535Z,1.19859
2022-12-28T15:21:20.125Z,13.18452
2022-12-28T15:36:22.346Z,101.88042
2022-12-28T15:51:24.649Z,332.01031
2022-12-28T16:06:26.870Z,602.89233
2022-12-28T16:21:29.062Z,753.9151
2022-12-28T16:36:31.555Z,998.4281
2022-12-28T16:51:34.028Z,1627.68945
2022-12-28T17:06:36.361Z,2331.26367
2022-12-28T17:21:38.559Z,2765.1543
2022-12-28T17:36:41.035Z,3067.19995
2022-12-28T17:51:43.224Z,3592.18359
2022-12-28T18:06:45.488Z,4244.21826
2022-12-28T18:21:47.851Z,4838.7207
2022-12-28T18:36:50.135Z,5508.73389
2022-12-28T18:51:52.488Z,5447.60596
2022-12-28T19:06:54.841Z,5263.02246
2022-12-28T19:21:59.052Z,5686.12598
2022-12-28T19:37:01.869Z,5934.23486
2022-12-28T19:52:04.130Z,5343.32812
2022-12-28T20:07:06.350Z,5375.69043
2022-12-28T20:22:08.633Z,6647.39746
2022-12-28T20:37:10.865Z,4919.02637
2022-12-28T20:52:13.143Z,5796.39648
2022-12-28T21:07:15.427Z,5156.34766
2022-12-28T21:22:17.709Z,3160.69019
2022-12-28T21:37:19.935Z,2481.08789
2022-12-28T21:52:22.350Z,3042.0293
2022-12-28T22:07:24.634Z,2749.57275
2022-12-28T22:22:26.855Z,1976.4801
2022-12-28T22:37:29.279Z,1567.75989
2022-12-28T22:52:31.705Z,1540.19214
2022-12-28T23:07:33.931Z,1239.34534
2022-12-28T23:22:36.197Z,998.4281
2022-12-28T23:37:38.501Z,565.73596
2022-12-28T23:52:40.783Z,270.88205
